ADDS METAR Data INFO
IDs: Format: Raw Decoded Include TAF

Data at: 1407 UTC 12 Dec 2017

KGPI 121355Z AUTO 00000KT 3SM BR OVC004 M06/M06 A3051 RMK AO2 SLP374 I1000 T10561056
KGPI 121344Z AUTO 28003KT 3SM BR OVC004 M06/M06 A3052 RMK AO2 I1000 T10561056
KGPI 121255Z AUTO 31003KT 4SM BR OVC005 M06/M06 A3052 RMK AO2 SLP379 T10561056
KGPI 121155Z AUTO 00000KT 5SM BR OVC006 M06/M06 A3054 RMK AO2 SLP384 T10561061 11050 21056 58009
KGPI 121055Z AUTO 26003KT 7SM OVC005 M06/M06 A3056 RMK AO2 SLP389 T10561061
KGPI 120955Z AUTO 19005KT 8SM OVC006 M06/M06 A3057 RMK AO2 SLP393 T10561061
KGPI 120855Z AUTO 00000KT 8SM OVC006 M06/M06 A3057 RMK AO2 SLP395 T10561061 58003
KGPI 120755Z AUTO 20003KT 8SM OVC007 M05/M06 A3057 RMK AO2 SLP395 T10501061
KGPI 120655Z 00000KT 8SM OVC007 M05/M06 A3058 RMK AO2 SLP398 T10501061 410391050
KGPI 120555Z 15004KT 9SM OVC009 M05/M06 A3058 RMK AO2 SLP399 60000 T10501061 11039 21050 55001
KGPI 120455Z 15003KT 5SM BR OVC009 M05/M06 A3058 RMK AO2 SNB37E53 CIG 008V011 SLP399 P0000 T10501061
KGPI 120450Z 20003KT 2SM -SN BR OVC009 M05/M06 A3058 RMK AO2 SNB37 CIG 008V011 P0000
KGPI 120444Z 00000KT 1SM -SN BR OVC009 M05/M06 A3058 RMK AO2 SNB37 P0000 T10501056
KGPI 120436Z 00000KT 1 3/4SM BR OVC008 M05/M06 A3058 RMK AO2 T10501061
KGPI 120355Z 00000KT 9SM OVC009 M04/M06 A3059 RMK AO2 SLP399 T10441061
KGPI 120255Z 00000KT 10SM OVC009 M04/M06 A3058 RMK AO2 SLP399 T10441061 58001
KGPI 120155Z 00000KT 10SM OVC009 M04/M07 A3059 RMK AO2 SLP402 T10441067
KGPI 120055Z 00000KT 10SM OVC009 M04/M06 A3060 RMK AO2 SLP404 T10441061
KGPI 112355Z 00000KT 10SM OVC009 M04/M06 A3059 RMK AO2 SLP400 T10391061 11039 21050 56006
KGPI 112255Z 23003KT 10SM OVC009 M04/M07 A3059 RMK AO2 SLP401 T10441067
KGPI 112155Z 00000KT 10SM OVC009 M04/M06 A3059 RMK AO2 SLP399 T10391061
KGPI 112055Z 00000KT 10SM OVC009 M04/M06 A3061 RMK AO2 SLP407 T10441061 58014
KGPI 111955Z 28003KT 10SM OVC009 M04/M06 A3063 RMK AO2 SLP414 T10441061
KGPI 111917Z 00000KT 10SM OVC009 M04/M07 A3064 RMK AO2 T10441067
KGPI 111906Z 20004KT 10SM OVC010 M05/M06 A3065 RMK AO2 T10501061
KGPI 111855Z 00000KT 10SM OVC009 M04/M06 A3065 RMK AO2 SLP421 T10441061
KGPI 111755Z 28003KT 10SM OVC009 M05/M07 A3065 RMK AO2 SLP423 T10501067 11050 21050 51007
KGPI 111655Z 00000KT 10SM OVC009 M05/M07 A3065 RMK AO2 SLP421 T10501067
KGPI 111614Z 00000KT 10SM OVC009 M05/M07 A3064 RMK AO2 T10501067
KGPI 111555Z 00000KT 10SM OVC010 M05/M07 A3064 RMK AO2 SLP418 T10501067
KGPI 111455Z 00000KT 10SM OVC010 M05/M07 A3063 RMK AO2 SLP414 T10501067 50002
KGPI 111355Z AUTO 31003KT 10SM OVC011 M05/M07 A3063 RMK AO2 SLP413 T10501067
KGPI 111255Z AUTO VRB03KT 10SM OVC011 M05/M07 A3063 RMK AO2 SLP411 T10501067
KGPI 111155Z AUTO 00000KT 10SM OVC011 M05/M06 A3063 RMK AO2 SLP411 T10501061 11039 21050 55000
KGPI 111055Z AUTO 30003KT 10SM OVC011 M04/M06 A3062 RMK AO2 SLP410 T10441061
KGPI 110955Z AUTO 29004KT 10SM OVC011 M04/M06 A3062 RMK AO2 SLP410 T10441061
KGPI 110855Z AUTO 29004KT 10SM OVC011 M04/M06 A3062 RMK AO2 SLP410 T10441061 55001
KGPI 110755Z AUTO 29004KT 10SM OVC011 M04/M06 A3062 RMK AO2 SLP409 T10441061
KGPI 110655Z 28004KT 10SM OVC011 M04/M06 A3062 RMK AO2 SLP410 T10441056 410281044
KGPI 110555Z 28003KT 10SM OVC011 M04/M06 A3063 RMK AO2 SLP411 T10391056 11033 21039 51004
KGPI 110455Z 28003KT 8SM OVC008 M04/M05 A3063 RMK AO2 SLP411 T10391050
KGPI 110355Z 00000KT 8SM OVC009 M04/M05 A3062 RMK AO2 SLP410 T10391050
KGPI 110319Z 32003KT 10SM OVC009 M04/M06 A3062 RMK AO2 T10391056
KGPI 110255Z 01004KT 10SM OVC010 M04/M06 A3061 RMK AO2 SLP406 T10391056 53004